createdAt,value
2022-08-11T00:00:00.908Z,6.45
2022-08-11T00:02:35.140Z,4.95
2022-08-11T00:05:08.044Z,5.55
2022-08-11T00:07:43.371Z,8.27
2022-08-11T00:10:14.079Z,6.18
2022-08-11T00:12:43.846Z,7.22
2022-08-11T00:15:13.430Z,6.57
2022-08-11T00:17:43.685Z,5.93
2022-08-11T00:20:16.623Z,5.47
2022-08-11T00:22:48.062Z,5.85
2022-08-11T00:25:19.309Z,5.80
2022-08-11T00:27:48.967Z,8.32
2022-08-11T00:30:18.019Z,6.68
2022-08-11T00:32:56.131Z,5.18
2022-08-11T00:35:53.888Z,7.68
2022-08-11T00:38:25.551Z,6.32
2022-08-11T00:41:00.496Z,5.93
2022-08-11T00:43:42.947Z,6.72
2022-08-11T00:48:51.823Z,6.32
2022-08-11T00:51:27.027Z,8.80
2022-08-11T00:54:37.439Z,8.30
2022-08-11T00:57:37.110Z,7.18
2022-08-11T01:00:17.899Z,5.78
2022-08-11T01:03:10.148Z,5.18
2022-08-11T01:05:52.570Z,6.13
2022-08-11T01:08:42.635Z,6.50
2022-08-11T01:11:36.015Z,5.55
2022-08-11T01:14:34.091Z,5.68
2022-08-11T01:17:44.747Z,6.20
2022-08-11T01:20:58.535Z,5.13
2022-08-11T01:24:10.947Z,6.40
2022-08-11T01:27:19.722Z,5.80
2022-08-11T01:30:42.846Z,6.20
2022-08-11T01:33:59.492Z,5.10
2022-08-11T01:36:57.217Z,5.97
2022-08-11T01:39:56.764Z,7.63
2022-08-11T01:43:20.517Z,6.25
2022-08-11T01:45:54.066Z,5.30
2022-08-11T01:48:33.721Z,5.93
2022-08-11T01:51:17.167Z,5.22
2022-08-11T01:53:54.768Z,5.55
2022-08-11T01:56:47.954Z,5.82
2022-08-11T01:59:20.095Z,6.05
2022-08-11T02:02:04.845Z,5.03
2022-08-11T02:04:36.983Z,7.18
2022-08-11T02:07:14.486Z,5.93
2022-08-11T02:10:26.831Z,5.32
2022-08-11T02:13:15.013Z,6.47
2022-08-11T02:15:47.555Z,10.27
2022-08-11T02:18:48.216Z,9.70
2022-08-11T02:21:42.646Z,6.93
2022-08-11T02:29:20.114Z,5.35
2022-08-11T02:32:24.980Z,5.78
2022-08-11T02:35:04.429Z,6.22
2022-08-11T02:37:45.082Z,7.72
2022-08-11T02:40:26.032Z,11.30
2022-08-11T02:43:10.207Z,5.57
2022-08-11T02:45:54.422Z,5.90
2022-08-11T02:48:55.421Z,6.65
2022-08-11T02:51:31.027Z,6.93
2022-08-11T02:54:06.771Z,6.38
2022-08-11T02:56:44.535Z,7.93
2022-08-11T02:59:43.946Z,5.95
2022-08-11T03:02:22.716Z,9.25
2022-08-11T03:05:01.388Z,6.78
2022-08-11T03:07:34.985Z,5.43
2022-08-11T03:10:11.310Z,6.05
2022-08-11T03:13:04.918Z,5.53
2022-08-11T03:16:01.129Z,8.02
2022-08-11T03:18:35.839Z,8.40
2022-08-11T03:21:11.318Z,5.43
2022-08-11T03:23:48.670Z,6.93
2022-08-11T03:26:25.289Z,7.10
2022-08-11T03:29:02.004Z,7.65
2022-08-11T03:31:35.740Z,9.50
2022-08-11T03:34:08.375Z,6.32
2022-08-11T03:37:17.004Z,6.45
2022-08-11T03:39:56.413Z,8.05
2022-08-11T03:42:33.157Z,7.80
2022-08-11T03:45:08.295Z,5.93
2022-08-11T03:47:58.822Z,9.90
2022-08-11T03:50:45.757Z,7.20
2022-08-11T03:53:19.930Z,5.80
2022-08-11T03:56:11.541Z,6.95
2022-08-11T03:59:05.860Z,8.98
2022-08-11T04:02:04.574Z,6.55
2022-08-11T04:05:21.855Z,6.35
2022-08-11T04:08:38.446Z,9.13
2022-08-11T04:11:37.991Z,8.65
2022-08-11T04:14:57.158Z,8.70
2022-08-11T04:17:58.633Z,10.98
2022-08-11T04:21:08.465Z,7.13
2022-08-11T04:24:13.086Z,9.45
2022-08-11T04:27:21.194Z,6.40
2022-08-11T04:30:05.537Z,6.63
2022-08-11T04:33:09.431Z,7.85
2022-08-11T04:35:50.943Z,7.40
2022-08-11T04:38:59.389Z,8.30
2022-08-11T04:42:23.029Z,6.75
2022-08-11T04:45:21.309Z,11.48
2022-08-11T04:48:25.044Z,5.95
2022-08-11T04:51:36.290Z,7.97
2022-08-11T04:54:40.018Z,9.77
2022-08-11T04:57:35.218Z,6.38
2022-08-11T05:00:25.274Z,10.63
2022-08-11T05:03:33.909Z,7.10
2022-08-11T05:06:49.844Z,7.85
2022-08-11T05:09:46.173Z,9.55
2022-08-11T05:12:36.953Z,9.18
2022-08-11T05:15:24.231Z,7.15
2022-08-11T05:18:19.407Z,8.57
2022-08-11T05:21:09.415Z,8.40
2022-08-11T05:23:59.932Z,10.13
2022-08-11T05:26:49.920Z,10.07
2022-08-11T05:29:58.525Z,8.30
2022-08-11T05:32:48.796Z,9.52
2022-08-11T05:36:02.097Z,9.88
2022-08-11T05:38:37.501Z,9.90
2022-08-11T05:41:24.554Z,15.05
2022-08-11T05:44:20.425Z,11.65
2022-08-11T05:47:09.402Z,10.10
2022-08-11T05:49:56.763Z,9.15
2022-08-11T05:52:46.831Z,10.77
2022-08-11T05:55:34.495Z,8.02
2022-08-11T05:58:04.894Z,7.88
2022-08-11T06:00:43.390Z,10.35
2022-08-11T06:03:12.215Z,8.60
2022-08-11T06:05:43.495Z,8.75
2022-08-11T06:08:14.253Z,11.27
2022-08-11T06:10:44.053Z,8.82
2022-08-11T06:13:16.988Z,12.70
2022-08-11T06:15:48.403Z,10.25
2022-08-11T06:18:17.186Z,10.90
2022-08-11T06:20:48.925Z,10.27
2022-08-11T06:23:19.438Z,7.57
2022-08-11T06:25:48.991Z,15.50
2022-08-11T06:28:20.778Z,9.38
2022-08-11T06:30:51.031Z,9.70
2022-08-11T06:33:30.599Z,9.32
2022-08-11T06:36:04.769Z,9.70
2022-08-11T06:38:47.838Z,11.00
2022-08-11T06:41:31.790Z,10.88
2022-08-11T06:44:08.218Z,9.73
2022-08-11T06:46:40.609Z,8.40
2022-08-11T06:49:30.115Z,9.75
2022-08-11T06:52:01.621Z,7.93
2022-08-11T06:54:31.923Z,11.82
2022-08-11T06:57:33.163Z,10.45
2022-08-11T07:00:20.355Z,8.90
2022-08-11T07:02:56.184Z,8.98
2022-08-11T07:05:34.261Z,9.52
2022-08-11T07:08:44.395Z,9.43
2022-08-11T07:11:54.769Z,8.82
2022-08-11T07:14:43.561Z,12.45
2022-08-11T07:17:17.348Z,9.68
2022-08-11T07:20:09.778Z,8.52
2022-08-11T07:22:55.929Z,10.75
2022-08-11T07:25:43.441Z,8.25
2022-08-11T07:28:35.994Z,6.95
2022-08-11T07:31:09.233Z,10.10
2022-08-11T07:34:07.923Z,8.32
2022-08-11T07:36:38.721Z,9.55
2022-08-11T07:39:11.905Z,8.02
2022-08-11T07:41:40.245Z,9.15
2022-08-11T07:44:11.716Z,8.45
2022-08-11T07:47:00.755Z,8.57
2022-08-11T07:49:48.193Z,9.23
2022-08-11T07:52:32.669Z,7.65
2022-08-11T07:55:04.329Z,9.10
2022-08-11T07:58:16.576Z,6.77
2022-08-11T08:00:59.305Z,7.90
2022-08-11T08:03:54.632Z,6.53
2022-08-11T08:06:41.690Z,9.40
2022-08-11T08:09:29.650Z,8.35
2022-08-11T08:12:18.323Z,5.47
2022-08-11T08:15:03.827Z,7.35
2022-08-11T08:18:20.424Z,6.10
2022-08-11T08:20:40.391Z,7.95
2022-08-11T08:23:09.451Z,7.30
2022-08-11T08:25:42.193Z,7.13
2022-08-11T08:28:14.068Z,9.02
2022-08-11T08:30:47.676Z,5.88
2022-08-11T08:33:18.321Z,7.82
2022-08-11T08:35:54.321Z,7.18
2022-08-11T08:38:23.914Z,7.03
2022-08-11T08:40:56.509Z,6.50
2022-08-11T08:43:26.083Z,7.65
2022-08-11T08:45:58.392Z,8.85
2022-08-11T08:48:29.685Z,8.60
2022-08-11T08:51:21.987Z,9.17
2022-08-11T08:53:56.103Z,7.35
2022-08-11T08:56:29.355Z,7.10
2022-08-11T08:59:00.523Z,5.40
2022-08-11T09:01:33.401Z,9.43
2022-08-11T09:04:10.596Z,9.02
2022-08-11T09:06:41.029Z,6.85
2022-08-11T09:09:09.877Z,5.30
2022-08-11T09:11:53.378Z,6.57
2022-08-11T09:14:23.607Z,5.10
2022-08-11T09:16:53.492Z,6.05
2022-08-11T09:19:22.831Z,7.45
2022-08-11T09:22:13.356Z,6.28
2022-08-11T09:24:59.402Z,7.00
2022-08-11T09:27:29.232Z,5.25
2022-08-11T09:29:57.539Z,6.97
2022-08-11T09:32:26.586Z,5.95
2022-08-11T09:34:55.673Z,8.07
2022-08-11T09:37:54.333Z,8.63
2022-08-11T09:42:23.616Z,6.30
2022-08-11T09:43:39.305Z,7.50
2022-08-11T09:46:09.685Z,5.20
2022-08-11T09:48:40.860Z,5.72
2022-08-11T09:51:10.998Z,5.18
2022-08-11T09:53:41.633Z,7.45
2022-08-11T09:56:36.699Z,8.32
2022-08-11T09:59:07.265Z,8.45
2022-08-11T10:01:41.681Z,5.72
2022-08-11T10:04:16.372Z,7.68
2022-08-11T10:07:04.831Z,4.22
2022-08-11T10:09:41.658Z,6.00
2022-08-11T10:12:12.922Z,6.43
2022-08-11T10:15:03.643Z,5.73
2022-08-11T10:17:34.973Z,8.45
2022-08-11T10:20:05.896Z,6.55
2022-08-11T10:22:53.170Z,6.37
2022-08-11T10:25:41.209Z,5.05
2022-08-11T10:28:29.043Z,4.72
2022-08-11T10:31:20.325Z,6.60
2022-08-11T10:34:01.519Z,4.70
2022-08-11T10:36:30.830Z,6.47
2022-08-11T10:39:00.478Z,4.88
2022-08-11T10:42:07.250Z,8.65
2022-08-11T10:44:40.202Z,4.95
2022-08-11T10:47:30.171Z,3.70
2022-08-11T10:50:16.187Z,5.88
2022-08-11T10:53:03.451Z,3.92
2022-08-11T10:55:49.166Z,5.88
2022-08-11T10:58:36.641Z,4.38
2022-08-11T11:01:05.522Z,6.50
2022-08-11T11:03:36.952Z,5.15
2022-08-11T11:06:28.480Z,4.35
2022-08-11T11:09:05.333Z,7.20
2022-08-11T11:11:55.390Z,3.53
2022-08-11T11:14:46.105Z,6.15
2022-08-11T11:17:41.061Z,4.07
2022-08-11T11:20:34.385Z,5.72
2022-08-11T11:23:05.683Z,7.05
2022-08-11T11:25:42.977Z,3.25
2022-08-11T11:28:34.333Z,3.35
2022-08-11T11:31:15.674Z,6.90
2022-08-11T11:34:12.074Z,4.35
2022-08-11T11:36:48.493Z,4.28
2022-08-11T11:39:19.922Z,5.07
2022-08-11T11:41:49.421Z,3.97
2022-08-11T11:44:18.680Z,4.28
2022-08-11T11:46:47.538Z,6.00
2022-08-11T11:49:18.565Z,5.85
2022-08-11T11:51:50.230Z,6.43
2022-08-11T11:54:20.109Z,3.60
2022-08-11T11:56:48.434Z,4.40
2022-08-11T11:59:34.191Z,5.70
2022-08-11T12:02:11.654Z,4.90
2022-08-11T12:04:43.506Z,5.72
2022-08-11T12:07:31.105Z,5.38
2022-08-11T12:10:00.455Z,5.75
2022-08-11T12:12:46.187Z,7.72
2022-08-11T12:15:14.262Z,5.35
2022-08-11T12:17:42.261Z,3.58
2022-08-11T12:20:31.863Z,5.65
2022-08-11T12:23:18.277Z,3.90
2022-08-11T12:26:25.971Z,6.88
2022-08-11T12:28:52.674Z,5.82
2022-08-11T12:31:25.946Z,4.72
2022-08-11T12:33:56.056Z,6.22
2022-08-11T12:36:24.502Z,7.03
2022-08-11T12:38:55.626Z,6.70
2022-08-11T12:41:41.929Z,5.50
2022-08-11T12:44:29.762Z,5.13
2022-08-11T12:47:00.810Z,3.63
2022-08-11T12:49:49.715Z,6.40
2022-08-11T12:52:23.462Z,4.28
2022-08-11T12:54:59.820Z,5.78
2022-08-11T12:57:50.454Z,4.25
2022-08-11T13:00:38.236Z,4.72
2022-08-11T13:03:27.630Z,4.25
2022-08-11T13:05:58.255Z,2.60
2022-08-11T13:08:29.251Z,5.13
2022-08-11T13:11:18.962Z,3.92
2022-08-11T13:13:55.270Z,4.55
2022-08-11T13:16:27.622Z,3.83
2022-08-11T13:18:56.393Z,3.37
2022-08-11T13:21:24.837Z,3.70
2022-08-11T13:24:01.324Z,4.85
2022-08-11T13:26:43.395Z,4.57
2022-08-11T13:29:19.194Z,4.97
2022-08-11T13:31:47.613Z,6.55
2022-08-11T13:34:16.874Z,3.22
2022-08-11T13:36:45.435Z,4.20
2022-08-11T13:39:14.450Z,3.95
2022-08-11T13:41:45.255Z,6.82
2022-08-11T13:44:23.146Z,3.35
2022-08-11T13:46:53.519Z,4.60
2022-08-11T13:49:22.935Z,5.05
2022-08-11T13:51:51.501Z,8.00
2022-08-11T13:54:22.953Z,3.53
2022-08-11T13:56:56.133Z,3.97
2022-08-11T13:59:31.080Z,3.17
2022-08-11T14:02:21.995Z,3.42
2022-08-11T14:04:56.046Z,4.60
2022-08-11T14:07:28.934Z,4.70
2022-08-11T14:09:59.583Z,3.08
2022-08-11T14:13:03.212Z,3.63
2022-08-11T14:15:34.918Z,3.20
2022-08-11T14:18:07.442Z,5.50
2022-08-11T14:20:52.287Z,3.97
2022-08-11T14:23:27.276Z,5.95
2022-08-11T14:26:13.937Z,3.65
2022-08-11T14:28:44.961Z,4.45
2022-08-11T14:31:15.352Z,3.92
2022-08-11T14:33:58.074Z,4.22
2022-08-11T14:36:29.646Z,6.00
2022-08-11T14:38:58.185Z,5.18
2022-08-11T14:42:10.387Z,4.43
2022-08-11T14:44:56.883Z,5.40
2022-08-11T14:47:26.758Z,4.00
2022-08-11T14:50:10.039Z,4.65
2022-08-11T14:52:42.192Z,6.55
2022-08-11T14:55:29.079Z,5.70
2022-08-11T14:57:57.565Z,5.45
2022-08-11T15:00:27.574Z,7.40
2022-08-11T15:03:10.491Z,3.95
2022-08-11T15:05:55.857Z,3.92
2022-08-11T15:08:42.201Z,5.28
2022-08-11T15:11:32.401Z,4.30
2022-08-11T15:14:02.097Z,4.50
2022-08-11T15:16:49.410Z,3.67
2022-08-11T15:19:21.053Z,6.05
2022-08-11T15:22:06.749Z,5.28
2022-08-11T15:24:36.455Z,5.38
2022-08-11T15:27:25.490Z,5.95
2022-08-11T15:30:20.876Z,5.72
2022-08-11T15:33:35.708Z,4.18
2022-08-11T15:36:25.046Z,5.53
2022-08-11T15:38:58.922Z,4.25
2022-08-11T15:41:54.606Z,4.05
2022-08-11T15:45:02.029Z,4.20
2022-08-11T15:47:37.374Z,4.72
2022-08-11T15:50:13.643Z,4.22
2022-08-11T15:52:49.190Z,6.65
2022-08-11T15:55:17.949Z,5.35
2022-08-11T15:58:07.864Z,6.20
2022-08-11T16:00:59.126Z,5.28
2022-08-11T16:04:06.666Z,4.97
2022-08-11T16:06:47.519Z,3.97
2022-08-11T16:11:48.519Z,5.90
2022-08-11T16:14:35.832Z,4.35
2022-08-11T16:17:05.343Z,5.05
2022-08-11T16:19:36.054Z,3.60
2022-08-11T16:22:09.078Z,4.18
2022-08-11T16:27:02.078Z,3.72
2022-08-11T16:27:29.129Z,4.47
2022-08-11T16:29:58.129Z,3.63
2022-08-11T16:32:27.150Z,3.45
2022-08-11T16:35:17.145Z,6.00
2022-08-11T16:38:05.470Z,4.07
2022-08-11T16:40:34.854Z,4.82
2022-08-11T16:43:24.402Z,3.10
2022-08-11T16:46:11.421Z,3.78
2022-08-11T16:48:41.344Z,3.92
2022-08-11T16:51:13.013Z,7.20
2022-08-11T16:54:03.991Z,4.72
2022-08-11T16:56:36.118Z,4.03
2022-08-11T16:59:15.618Z,2.58
2022-08-11T17:01:47.153Z,5.75
2022-08-11T17:04:55.112Z,2.67
2022-08-11T17:07:50.141Z,2.65
2022-08-11T17:10:52.716Z,3.60
2022-08-11T17:13:29.983Z,3.35
2022-08-11T17:16:07.599Z,3.53
2022-08-11T17:18:43.093Z,3.10
2022-08-11T17:21:15.330Z,4.95
2022-08-11T17:23:47.066Z,2.47
2022-08-11T17:26:21.540Z,3.63
2022-08-11T17:28:52.707Z,4.45
2022-08-11T17:31:40.078Z,3.58
2022-08-11T17:34:26.783Z,5.00
2022-08-11T17:36:56.269Z,3.55
2022-08-11T17:39:30.219Z,3.80
2022-08-11T17:42:18.082Z,3.55
2022-08-11T17:45:04.041Z,2.67
2022-08-11T17:47:50.638Z,4.60
2022-08-11T17:50:19.021Z,6.30
2022-08-11T17:53:05.516Z,5.00
2022-08-11T17:55:53.639Z,5.30
2022-08-11T17:58:41.558Z,4.28
2022-08-11T18:01:12.153Z,3.58
2022-08-11T18:03:41.530Z,5.50
2022-08-11T18:06:13.307Z,3.45
2022-08-11T18:09:02.029Z,4.38
2022-08-11T18:12:10.682Z,4.88
2022-08-11T18:14:59.197Z,6.90
2022-08-11T18:17:45.130Z,3.13
2022-08-11T18:20:30.670Z,4.20
2022-08-11T18:23:16.947Z,3.15
2022-08-11T18:26:07.539Z,5.85
2022-08-11T18:29:01.928Z,3.38
2022-08-11T18:31:52.086Z,5.00
2022-08-11T18:34:50.721Z,3.65
2022-08-11T18:37:40.779Z,4.78
2022-08-11T18:40:29.609Z,5.40
2022-08-11T18:43:25.096Z,5.18
2022-08-11T18:46:17.844Z,3.17
2022-08-11T18:49:14.992Z,2.88
2022-08-11T18:52:05.294Z,6.15
2022-08-11T18:54:53.495Z,5.72
2022-08-11T18:57:49.746Z,6.75
2022-08-11T19:00:41.049Z,5.82
2022-08-11T19:03:28.337Z,3.80
2022-08-11T19:06:39.881Z,3.88
2022-08-11T19:09:27.195Z,3.20
2022-08-11T19:12:14.752Z,2.95
2022-08-11T19:15:01.797Z,3.50
2022-08-11T19:17:51.015Z,3.65
2022-08-11T19:20:38.774Z,3.50
2022-08-11T19:23:28.718Z,3.92
2022-08-11T19:26:15.782Z,8.00
2022-08-11T19:29:06.868Z,4.20
2022-08-11T19:31:53.451Z,4.40
2022-08-11T19:34:41.810Z,5.95
2022-08-11T19:37:28.663Z,5.68
2022-08-11T19:40:19.418Z,5.60
2022-08-11T19:43:11.243Z,4.47
2022-08-11T19:46:05.321Z,5.15
2022-08-11T19:48:51.870Z,4.53
2022-08-11T19:51:38.279Z,5.28
2022-08-11T19:54:24.864Z,4.57
2022-08-11T19:57:16.638Z,4.22
2022-08-11T20:00:03.030Z,5.72
2022-08-11T20:02:48.494Z,4.03
2022-08-11T20:05:34.545Z,6.78
2022-08-11T20:08:20.778Z,4.50
2022-08-11T20:11:06.851Z,6.03
2022-08-11T20:13:55.549Z,5.43
2022-08-11T20:16:42.169Z,5.10
2022-08-11T20:19:54.831Z,7.90
2022-08-11T20:22:34.154Z,3.50
2022-08-11T20:25:20.689Z,4.15
2022-08-11T20:28:07.757Z,4.70
2022-08-11T20:30:55.818Z,5.30
2022-08-11T20:33:45.040Z,5.97
2022-08-11T20:36:31.854Z,4.28
2022-08-11T20:39:18.835Z,4.03
2022-08-11T20:42:05.868Z,4.00
2022-08-11T20:44:52.962Z,3.75
2022-08-11T20:47:59.549Z,3.70
2022-08-11T20:50:49.330Z,4.75
2022-08-11T20:53:40.680Z,5.47
2022-08-11T20:56:28.624Z,4.82
2022-08-11T20:59:18.300Z,5.60
2022-08-11T21:02:09.393Z,4.70
2022-08-11T21:05:00.242Z,6.47
2022-08-11T21:07:55.531Z,6.65
2022-08-11T21:10:47.242Z,4.18
2022-08-11T21:16:26.138Z,4.32
2022-08-11T21:19:18.002Z,7.30
2022-08-11T21:22:06.378Z,4.45
2022-08-11T21:24:53.077Z,4.97
2022-08-11T21:27:40.042Z,7.03
2022-08-11T21:30:29.077Z,4.25
2022-08-11T21:33:15.066Z,7.10
2022-08-11T21:36:00.829Z,5.00
2022-08-11T21:38:49.357Z,5.72
2022-08-11T21:41:35.894Z,5.25
2022-08-11T21:44:22.849Z,5.05
2022-08-11T21:47:10.190Z,4.45
2022-08-11T21:49:58.774Z,7.32
2022-08-11T21:52:44.946Z,5.45
2022-08-11T21:55:33.058Z,3.97
2022-08-11T21:58:19.774Z,3.83
2022-08-11T22:01:05.805Z,5.57
2022-08-11T22:03:51.156Z,4.13
2022-08-11T22:06:37.095Z,7.38
2022-08-11T22:09:23.004Z,4.78
2022-08-11T22:12:34.431Z,6.25
2022-08-11T22:15:15.352Z,5.55
2022-08-11T22:18:02.230Z,4.22
2022-08-11T22:20:49.553Z,7.70
2022-08-11T22:23:37.129Z,4.55
2022-08-11T22:26:24.425Z,3.75
2022-08-11T22:29:11.649Z,4.43
2022-08-11T22:31:59.149Z,4.28
2022-08-11T22:34:52.826Z,5.90
2022-08-11T22:37:41.526Z,6.07
2022-08-11T22:40:29.435Z,8.88
2022-08-11T22:43:14.913Z,6.93
2022-08-11T22:46:02.767Z,4.43
2022-08-11T22:48:49.573Z,5.45
2022-08-11T22:51:38.249Z,8.95
2022-08-11T22:54:25.727Z,3.78
2022-08-11T22:57:12.265Z,4.95
2022-08-11T22:59:58.938Z,4.70
2022-08-11T23:02:47.703Z,8.27
2022-08-11T23:05:34.097Z,4.03
2022-08-11T23:08:20.047Z,4.63
2022-08-11T23:11:06.968Z,4.95
2022-08-11T23:13:52.997Z,5.55
2022-08-11T23:16:39.707Z,6.53
2022-08-11T23:20:10.041Z,5.47
2022-08-11T23:22:49.255Z,4.43
2022-08-11T23:25:36.716Z,4.95
2022-08-11T23:28:24.625Z,6.35
2022-08-11T23:31:15.720Z,5.40
2022-08-11T23:34:03.773Z,4.63
2022-08-11T23:36:50.377Z,8.60
2022-08-11T23:39:36.057Z,7.18
2022-08-11T23:42:22.933Z,3.92
2022-08-11T23:45:10.053Z,4.82
2022-08-11T23:47:57.172Z,4.70
2022-08-11T23:50:43.802Z,5.80
2022-08-11T23:53:32.131Z,6.10
2022-08-11T23:56:21.779Z,5.72
2022-08-11T23:59:09.310Z,6.05
